Time;durP1;ratioP1;P1;durP2;ratioP2;P2;SDS_P1;SDS_P2;PMS_P1;PMS_P2;Temp;Humidity;BMP_temperature;BMP_pressure;BME280_temperature;BME280_humidity;BME280_pressure;Samples;Min_cycle;Max_cycle;Signal;HPM_P1;HPM_P2
2022/09/24 00:01:15;;;;;;;16.17;8.52;;;;;;;14.39;80.63;101070.47;5047741;28;20025;-68
2022/09/24 00:03:44;;;;;;;25.00;8.65;;;;;;;14.37;80.25;101067.06;5049556;28;20141;-68
2022/09/24 00:06:13;;;;;;;14.60;8.63;;;;;;;14.43;80.09;101070.97;5040901;28;20034;-67
2022/09/24 00:08:38;;;;;;;17.25;8.50;;;;;;;14.43;80.02;101070.13;5028752;28;20160;-70
2022/09/24 00:11:06;;;;;;;14.60;7.20;;;;;;;14.35;80.11;101069.13;5028885;28;20545;-68
2022/09/24 00:13:33;;;;;;;12.23;7.55;;;;;;;14.38;80.01;101068.78;5029930;28;20030;-69
2022/09/24 00:16:05;;;;;;;16.10;7.00;;;;;;;14.18;81.37;101072.97;5028713;28;20036;-69
2022/09/24 00:18:30;;;;;;;;;;;;;;;13.87;84.11;101077.50;5038364;28;20025;-69
2022/09/24 00:20:56;;;;;;;13.57;8.45;;;;;;;14.02;83.22;101078.47;5049535;28;20403;-69
2022/09/24 00:23:22;;;;;;;15.20;8.68;;;;;;;14.14;82.98;101071.59;5036837;28;20022;-69
2022/09/24 00:28:32;;;;;;;11.25;7.45;;;;;;;13.96;83.30;101068.28;5043616;28;20112;-69
2022/09/24 00:31:02;;;;;;;20.15;8.23;;;;;;;13.73;83.46;101069.03;5039497;28;20029;-69
2022/09/24 00:33:27;;;;;;;11.23;7.32;;;;;;;14.07;82.18;101055.13;5040663;28;20079;-69
2022/09/24 00:36:04;;;;;;;14.50;7.15;;;;;;;14.03;80.87;101058.41;5049185;28;20032;-70
2022/09/24 00:38:33;;;;;;;13.60;7.82;;;;;;;13.62;84.41;101060.38;5043149;28;20021;-69
2022/09/24 00:40:59;;;;;;;16.50;8.25;;;;;;;13.81;84.25;101055.38;5046937;28;20094;-69
2022/09/24 00:43:28;;;;;;;18.15;8.13;;;;;;;14.03;83.44;101059.25;5031366;28;20029;-69
2022/09/24 00:46:06;;;;;;;11.40;6.82;;;;;;;13.99;84.00;101062.47;5027933;28;20100;-69
2022/09/24 00:48:33;;;;;;;17.70;7.72;;;;;;;13.96;83.08;101055.53;5041682;28;20033;-69
2022/09/24 00:51:00;;;;;;;16.42;7.40;;;;;;;14.02;82.66;101053.97;5030016;28;20026;-69
2022/09/24 00:53:31;;;;;;;15.25;7.57;;;;;;;13.92;83.31;101045.16;5027027;28;20025;-69
2022/09/24 00:55:58;;;;;;;14.75;8.13;;;;;;;13.57;85.25;101047.31;5027688;28;20029;-69
2022/09/24 00:58:24;;;;;;;17.45;7.18;;;;;;;13.41;85.74;101047.31;5029013;28;20028;-69
2022/09/24 01:00:56;;;;;;;14.30;7.85;;;;;;;13.45;85.52;101043.25;5035261;28;20129;-69
2022/09/24 01:03:22;;;;;;;;;;;;;;;13.52;85.90;101049.69;5029617;28;20060;-69
2022/09/24 01:05:49;;;;;;;14.35;8.38;;;;;;;13.64;84.62;101042.88;5040958;28;19981;-68
2022/09/24 01:08:16;;;;;;;19.00;8.23;;;;;;;13.73;84.63;101047.25;5047472;28;20417;-68
2022/09/24 01:10:51;;;;;;;16.23;8.63;;;;;;;13.82;83.93;101043.50;5038673;28;20048;-68
2022/09/24 01:13:44;;;;;;;17.42;8.80;;;;;;;13.98;83.46;101039.84;5024101;28;20017;-68
2022/09/24 01:16:35;;;;;;;17.58;8.10;;;;;;;14.02;83.29;101045.81;5029021;28;20027;-68
2022/09/24 01:19:22;;;;;;;12.90;8.70;;;;;;;13.96;83.91;101041.91;5036402;28;20036;-68
2022/09/24 01:21:54;;;;;;;12.68;8.50;;;;;;;14.02;82.92;101040.38;5041458;28;20431;-68
2022/09/24 01:24:39;;;;;;;15.85;8.35;;;;;;;14.02;83.02;101035.78;5035063;28;20025;-68
2022/09/24 01:27:27;;;;;;;15.73;9.20;;;;;;;14.07;82.78;101043.38;5027139;28;20048;-68
2022/09/24 01:29:59;;;;;;;12.73;7.63;;;;;;;14.18;82.04;101034.84;5027277;28;20025;-68
2022/09/24 01:32:38;;;;;;;14.25;8.23;;;;;;;14.22;82.05;101036.19;5028210;28;20492;-68
2022/09/24 01:35:27;;;;;;;14.68;7.93;;;;;;;14.27;81.98;101033.75;5026945;28;20468;-68
2022/09/24 01:38:15;;;;;;;17.25;8.35;;;;;;;14.19;81.93;101036.53;5029076;28;20498;-68
2022/09/24 01:40:42;;;;;;;15.88;8.73;;;;;;;13.95;83.29;101033.91;5026076;28;20021;-68
2022/09/24 01:43:10;;;;;;;16.25;9.70;;;;;;;14.00;83.13;101031.50;5035123;28;20140;-68
2022/09/24 01:45:37;;;;;;;14.95;7.30;;;;;;;14.08;82.51;101028.75;5044037;28;20017;-68
2022/09/24 01:48:04;;;;;;;16.20;8.40;;;;;;;13.99;82.59;101029.81;5047259;28;20107;-69
2022/09/24 01:50:38;;;;;;;16.73;8.50;;;;;;;13.73;84.25;101020.03;5043541;28;20337;-68
2022/09/24 01:53:13;;;;;;;16.42;9.65;;;;;;;13.81;83.85;101022.72;5044602;28;20058;-68
2022/09/24 01:55:47;;;;;;;16.40;8.63;;;;;;;13.76;84.58;101022.44;5032543;28;20037;-68
2022/09/24 01:58:22;;;;;;;17.70;9.48;;;;;;;13.86;83.99;101019.50;5046950;28;20048;-68
2022/09/24 02:00:52;;;;;;;14.18;7.85;;;;;;;13.93;83.47;101019.63;5046876;28;20059;-68
2022/09/24 02:03:28;;;;;;;9.98;7.38;;;;;;;13.78;84.12;101022.25;5046800;28;20025;-69
2022/09/24 02:06:02;;;;;;;15.98;8.55;;;;;;;13.47;86.28;101014.00;5046726;28;20029;-68
2022/09/24 02:08:35;;;;;;;15.43;8.45;;;;;;;13.12;88.27;101016.06;5043285;28;20036;-68
2022/09/24 02:11:05;;;;;;;15.95;8.93;;;;;;;13.16;88.53;101017.41;5046571;28;20032;-68
2022/09/24 02:13:38;;;;;;;15.75;9.00;;;;;;;13.23;87.91;101013.00;5046578;28;20060;-69
2022/09/24 02:16:06;;;;;;;14.30;9.32;;;;;;;13.33;87.63;101009.28;5045096;28;20032;-68
2022/09/24 02:18:39;;;;;;;14.45;9.05;;;;;;;13.38;87.61;101004.19;5026738;28;20032;-68
2022/09/24 02:21:11;;;;;;;15.77;8.80;;;;;;;13.53;86.83;100997.81;5038353;28;20489;-68
2022/09/24 02:23:44;;;;;;;15.50;9.15;;;;;;;13.60;85.94;101008.88;5040686;28;20091;-68
2022/09/24 02:26:10;;;;;;;11.18;8.40;;;;;;;13.60;86.86;101008.88;5028163;28;20036;-68
2022/09/24 02:28:35;;;;;;;11.52;8.25;;;;;;;13.53;86.60;101014.16;5046488;28;20039;-68
2022/09/24 02:31:07;;;;;;;14.02;8.63;;;;;;;13.59;86.86;101012.59;5047435;28;20029;-68
2022/09/24 02:36:20;;;;;;;14.73;8.70;;;;;;;13.37;87.44;101018.78;5047729;28;20061;-69
2022/09/24 02:38:45;;;;;;;14.60;9.05;;;;;;;13.47;87.46;101008.56;5047897;28;20056;-69
2022/09/24 02:41:12;;;;;;;15.70;9.30;;;;;;;13.42;87.18;101005.50;5047099;28;20492;-69
2022/09/24 02:43:39;;;;;;;22.17;9.65;;;;;;;13.37;87.35;101018.78;5047971;28;20188;-69
2022/09/24 02:46:08;;;;;;;18.98;9.25;;;;;;;13.58;86.64;101006.31;5038960;28;20065;-69
2022/09/24 02:48:35;;;;;;;15.50;8.85;;;;;;;13.72;85.98;101004.75;5028798;28;20057;-69
2022/09/24 02:51:02;;;;;;;20.60;8.93;;;;;;;13.77;85.97;101005.06;5035499;28;20029;-69
2022/09/24 02:53:28;;;;;;;19.08;8.43;;;;;;;13.81;85.49;101006.41;5047745;28;20038;-69
2022/09/24 02:55:54;;;;;;;15.38;8.80;;;;;;;13.68;85.62;101003.38;5047605;28;20033;-69
2022/09/24 02:58:20;;;;;;;13.25;8.85;;;;;;;13.72;85.76;101002.03;5047280;28;20039;-69
2022/09/24 03:00:45;;;;;;;19.73;8.27;;;;;;;13.78;86.13;101001.31;5040731;28;20029;-68
2022/09/24 03:03:10;;;;;;;16.55;9.25;;;;;;;13.76;85.89;100997.94;5027638;28;20026;-68
2022/09/24 03:05:36;;;;;;;13.63;8.02;;;;;;;13.78;85.75;101003.19;5028999;28;20026;-68
2022/09/24 03:08:01;;;;;;;16.58;9.43;;;;;;;13.88;85.17;101000.25;5031953;28;20024;-68
2022/09/24 03:10:26;;;;;;;18.38;8.95;;;;;;;13.97;84.54;100988.31;5047542;28;20078;-68
2022/09/24 03:12:52;;;;;;;17.45;10.10;;;;;;;13.46;86.69;101001.44;5049087;28;20452;-68
2022/09/24 03:15:17;;;;;;;16.88;9.35;;;;;;;13.50;86.69;100997.34;5047243;28;20068;-68
2022/09/24 03:17:43;;;;;;;16.88;9.50;;;;;;;13.69;86.23;100996.94;5043160;28;20108;-68
2022/09/24 03:20:08;;;;;;;16.45;7.93;;;;;;;13.81;85.70;100995.50;5051010;28;20013;-69
2022/09/24 03:22:34;;;;;;;17.27;9.43;;;;;;;13.86;84.77;101005.88;5050976;28;20031;-68
2022/09/24 03:25:02;;;;;;;15.43;9.07;;;;;;;13.87;84.92;101004.00;5043061;28;20116;-68
2022/09/24 03:27:27;;;;;;;14.43;10.32;;;;;;;13.85;85.12;101002.31;5031430;28;20025;-68
2022/09/24 03:32:37;;;;;;;16.85;9.18;;;;;;;13.87;84.24;101004.00;5051747;28;20032;-68
2022/09/24 03:35:03;;;;;;;12.20;8.15;;;;;;;13.86;84.26;101008.59;5047593;28;20032;-68
2022/09/24 03:37:29;;;;;;;19.73;9.30;;;;;;;13.75;85.45;100998.94;5032186;28;20029;-68
2022/09/24 03:39:55;;;;;;;18.60;9.73;;;;;;;13.57;87.06;101003.78;5046949;28;20032;-69
2022/09/24 03:42:20;;;;;;;16.23;10.32;;;;;;;13.56;87.07;100996.63;5040340;28;20048;-69
2022/09/24 03:44:45;;;;;;;21.55;10.13;;;;;;;13.55;87.63;101005.81;5051988;28;20025;-69
2022/09/24 03:47:11;;;;;;;17.20;10.55;;;;;;;13.34;88.02;100997.38;5041287;28;20021;-69
2022/09/24 03:49:36;;;;;;;17.27;10.65;;;;;;;13.28;88.96;100994.31;5041843;28;20028;-69
2022/09/24 03:52:01;;;;;;;15.07;9.68;;;;;;;13.32;89.05;101004.88;5034340;28;20013;-69
2022/09/24 03:54:27;;;;;;;20.20;11.30;;;;;;;13.07;89.52;101007.56;5050167;28;20112;-69
2022/09/24 03:56:52;;;;;;;20.48;12.10;;;;;;;13.00;90.20;100995.69;5032848;28;20033;-69
2022/09/24 03:59:18;;;;;;;18.63;12.23;;;;;;;12.88;91.33;100997.06;5036106;28;20010;-69
2022/09/24 04:01:43;;;;;;;16.05;12.07;;;;;;;13.00;90.83;100995.69;5029909;28;20057;-69
2022/09/24 04:04:09;;;;;;;21.60;11.65;;;;;;;12.95;91.02;100993.47;5040072;28;20020;-69
2022/09/24 04:06:34;;;;;;;22.15;13.20;;;;;;;12.86;91.04;100993.66;5035126;28;20108;-69
2022/09/24 04:08:59;;;;;;;20.98;12.77;;;;;;;12.79;91.77;100998.09;5040520;28;20021;-69
2022/09/24 04:11:25;;;;;;;17.10;13.43;;;;;;;12.55;93.40;100991.59;5030801;28;20149;-69
2022/09/24 04:13:50;;;;;;;25.35;13.63;;;;;;;12.51;93.27;100979.38;5038738;28;20064;-69
2022/09/24 04:16:16;;;;;;;24.25;13.55;;;;;;;12.55;93.50;100986.19;5043561;28;20025;-69
2022/09/24 04:18:42;;;;;;;22.80;13.75;;;;;;;12.56;93.58;100982.44;5051238;28;20104;-69
2022/09/24 04:21:08;;;;;;;17.85;13.48;;;;;;;12.67;93.19;100982.13;5049844;28;20117;-69
2022/09/24 04:23:33;;;;;;;24.88;14.95;;;;;;;12.66;92.59;100983.13;5043422;28;20028;-69
2022/09/24 04:26:00;;;;;;;25.45;13.82;;;;;;;12.69;92.51;100982.78;5048320;28;20028;-69
2022/09/24 04:28:27;;;;;;;20.45;13.43;;;;;;;12.66;92.60;100983.13;5029582;28;20067;-69
2022/09/24 04:30:52;;;;;;;25.65;13.85;;;;;;;12.75;92.58;100981.25;5035320;28;20024;-69
2022/09/24 04:33:18;;;;;;;26.70;14.63;;;;;;;12.85;91.71;100981.09;5038548;28;20039;-69
2022/09/24 04:35:44;;;;;;;23.80;13.55;;;;;;;12.75;92.73;100987.53;5050671;28;20021;-69
2022/09/24 04:38:10;;;;;;;23.65;12.70;;;;;;;12.89;91.89;100974.28;5050715;28;20025;-69
2022/09/24 04:40:35;;;;;;;21.10;13.38;;;;;;;12.87;92.11;100977.19;5034842;28;20048;-69
2022/09/24 04:43:01;;;;;;;24.70;14.43;;;;;;;12.79;92.32;100976.34;5047644;28;20071;-69
2022/09/24 04:45:26;;;;;;;22.10;13.48;;;;;;;12.84;92.28;100976.66;5049421;28;20044;-69
2022/09/24 04:47:54;;;;;;;19.77;12.80;;;;;;;12.89;92.03;100977.84;5032844;28;20022;-69
2022/09/24 04:50:21;;;;;;;23.02;13.90;;;;;;;12.85;92.31;100981.09;5029375;28;20116;-69
2022/09/24 04:52:46;;;;;;;18.95;13.30;;;;;;;12.93;91.65;100967.50;5032989;28;20029;-69
2022/09/24 04:55:12;;;;;;;23.02;13.32;;;;;;;12.97;92.29;100974.28;5029751;28;20033;-69
2022/09/24 04:57:37;;;;;;;22.13;14.93;;;;;;;12.85;92.57;100975.66;5031125;28;20084;-69
2022/09/24 05:00:06;;;;;;;27.92;15.20;;;;;;;12.82;92.94;100973.28;5046489;28;20033;-70
2022/09/24 05:02:32;;;;;;;21.23;15.10;;;;;;;12.86;93.06;100969.22;5048761;28;20029;-69
2022/09/24 05:04:57;;;;;;;25.38;16.65;;;;;;;12.95;92.92;100979.88;5030903;28;20032;-69
2022/09/24 05:07:23;;;;;;;23.55;15.50;;;;;;;12.93;92.99;100972.94;5038991;28;20108;-69
2022/09/24 05:09:48;;;;;;;20.23;15.27;;;;;;;13.11;92.91;100975.47;5033572;28;20087;-69
2022/09/24 05:12:13;;;;;;;25.42;17.73;;;;;;;13.02;93.24;100977.34;5046206;28;20028;-69
2022/09/24 05:14:39;;;;;;;32.72;19.17;;;;;;;12.99;93.01;100972.25;5049526;28;20021;-69
2022/09/24 05:17:04;;;;;;;28.65;18.98;;;;;;;13.05;92.65;100977.00;5037888;28;20025;-69
2022/09/24 05:19:30;;;;;;;24.50;17.27;;;;;;;12.95;92.99;100979.88;5030032;28;20029;-69
2022/09/24 05:21:55;;;;;;;29.85;17.63;;;;;;;13.12;92.39;100983.44;5038495;28;20033;-69
2022/09/24 05:24:20;;;;;;;28.55;18.98;;;;;;;13.11;92.71;100976.31;5048806;28;20112;-69
2022/09/24 05:29:30;;;;;;;30.02;20.60;;;;;;;12.93;93.92;100978.38;5050171;28;20068;-69
2022/09/24 05:31:55;;;;;;;28.02;21.05;;;;;;;12.89;93.80;100974.28;5048272;28;20057;-69
2022/09/24 05:34:20;;;;;;;36.70;21.73;;;;;;;13.00;94.37;100979.38;5045178;28;20038;-69
2022/09/24 05:36:46;;;;;;;32.60;20.83;;;;;;;13.01;93.87;100978.34;5033352;28;20048;-69
2022/09/24 05:39:14;;;;;;;30.77;21.73;;;;;;;13.01;94.89;100981.06;5043540;28;20025;-70
2022/09/24 05:41:39;;;;;;;32.33;23.05;;;;;;;12.99;95.32;100980.41;5034717;28;20021;-69
2022/09/24 05:44:05;;;;;;;32.95;24.25;;;;;;;12.89;95.69;100977.00;5043880;28;20037;-69
2022/09/24 05:46:31;;;;;;;37.00;25.58;;;;;;;12.94;95.25;100974.63;5041747;28;20025;-69
2022/09/24 05:48:57;;;;;;;45.00;28.52;;;;;;;12.89;95.13;100982.44;5033778;28;20041;-69
2022/09/24 05:51:23;;;;;;;47.05;26.83;;;;;;;12.71;96.58;100980.75;5038828;28;20020;-70
2022/09/24 05:53:49;;;;;;;41.92;28.13;;;;;;;12.81;96.55;100979.72;5049097;28;20024;-69
2022/09/24 05:56:15;;;;;;;40.70;27.45;;;;;;;12.74;96.88;100980.41;5049379;28;20024;-70
2022/09/24 05:58:40;;;;;;;48.97;29.95;;;;;;;12.59;97.44;100981.28;5043456;28;20044;-69
2022/09/24 06:01:06;;;;;;;46.42;32.15;;;;;;;12.74;97.50;100987.72;5038768;28;20103;-69
2022/09/24 06:03:31;;;;;;;45.25;30.67;;;;;;;12.86;97.12;100982.78;5033739;28;20021;-69
2022/09/24 06:06:00;;;;;;;51.72;32.80;;;;;;;12.95;96.27;100984.47;5038682;28;20044;-70
2022/09/24 06:08:27;;;;;;;53.17;33.00;;;;;;;12.97;96.00;100991.44;5047978;28;20040;-70
2022/09/24 06:10:58;;;;;;;46.08;30.65;;;;;;;12.77;97.28;100990.94;5048853;28;20035;-70
2022/09/24 06:13:24;;;;;;;55.55;35.78;;;;;;;12.89;96.77;100987.88;5039700;28;20021;-70
2022/09/24 06:15:49;;;;;;;51.20;33.28;;;;;;;12.84;96.71;100984.81;5047754;28;20048;-70
2022/09/24 06:18:15;;;;;;;57.72;34.25;;;;;;;12.98;97.33;100986.88;5043853;28;20033;-70
2022/09/24 06:20:40;;;;;;;57.13;39.63;;;;;;;12.85;97.64;100991.97;5040295;28;20029;-70
2022/09/24 06:23:06;;;;;;;52.10;36.72;;;;;;;12.94;97.10;100985.50;5046254;28;20110;-71
2022/09/24 06:25:32;;;;;;;53.53;34.25;;;;;;;12.78;98.17;100986.38;5049005;28;20053;-71
2022/09/24 06:28:00;;;;;;;61.42;40.20;;;;;;;12.57;98.94;100989.56;5044612;28;20065;-71
2022/09/24 06:30:32;;;;;;;63.10;38.10;;;;;;;12.81;98.14;100996.03;5047878;28;20029;-70
2022/09/24 06:33:10;;;;;;;72.78;41.58;;;;;;;12.53;99.70;100993.66;5046611;28;20021;-71
2022/09/24 06:35:38;;;;;;;61.60;40.20;;;;;;;12.51;100.00;100995.66;5039107;28;20028;-70
2022/09/24 06:38:04;;;;;;;61.20;39.35;;;;;;;12.58;99.95;101002.13;5036365;28;20035;-71
2022/09/24 06:40:30;;;;;;;73.07;44.58;;;;;;;12.69;99.77;101004.50;5022579;28;20505;-73
2022/09/24 06:42:56;;;;;;;72.65;43.70;;;;;;;12.53;100.00;101009.94;5030177;28;20032;-73
2022/09/24 06:45:22;;;;;;;70.88;41.38;;;;;;;12.62;100.00;101003.50;5033779;28;20017;-70
2022/09/24 06:47:52;;;;;;;62.20;40.45;;;;;;;12.53;100.00;100992.81;5027205;28;20037;-71
2022/09/24 06:50:18;;;;;;;79.45;44.40;;;;;;;12.58;100.00;100996.69;5034646;28;20013;-71
2022/09/24 06:52:43;;;;;;;70.13;40.05;;;;;;;12.51;100.00;100995.66;5045172;28;20029;-70
2022/09/24 06:55:08;;;;;;;63.60;37.75;;;;;;;12.54;100.00;100995.34;5039552;28;20021;-71
2022/09/24 06:57:34;;;;;;;72.32;41.28;;;;;;;12.53;100.00;100999.09;5029071;28;20030;-72
2022/09/24 06:59:59;;;;;;;77.05;44.85;;;;;;;12.60;100.00;101005.53;5025682;28;20032;-71
2022/09/24 07:02:24;;;;;;;64.88;39.08;;;;;;;12.67;100.00;101005.72;5030221;28;20029;-71
2022/09/24 07:04:50;;;;;;;66.72;42.40;;;;;;;12.60;100.00;101005.53;5022324;28;20033;-72
2022/09/24 07:07:33;;;;;;;69.90;38.90;;;;;;;12.58;100.00;101002.13;5027043;28;20060;-72
2022/09/24 07:10:01;;;;;;;80.88;45.75;;;;;;;12.52;100.00;101013.69;5025055;28;20082;-73
2022/09/24 07:12:31;;;;;;;62.70;38.22;;;;;;;12.38;100.00;101022.47;5043497;28;20056;-74
2022/09/24 07:14:57;;;;;;;79.63;44.28;;;;;;;12.42;100.00;101018.41;5040734;28;20025;-75
2022/09/24 07:17:27;;;;;;;69.00;40.65;;;;;;;12.57;100.00;101016.72;5033153;28;20032;-74
2022/09/24 07:19:53;;;;;;;74.05;44.53;;;;;;;12.56;100.00;101014.19;5033382;28;20093;-74
2022/09/24 07:22:19;;;;;;;67.82;41.83;;;;;;;12.59;100.00;101022.84;5032997;28;20083;-73
2022/09/24 07:24:45;;;;;;;72.30;41.45;;;;;;;12.68;100.00;101019.13;5032920;28;20107;-75
2022/09/24 07:27:11;;;;;;;70.55;40.83;;;;;;;12.66;100.00;101026.59;5032098;28;20088;-75
2022/09/24 07:29:37;;;;;;;73.03;41.55;;;;;;;12.73;100.00;101026.78;5032475;28;20490;-75
2022/09/24 07:32:02;;;;;;;58.88;35.88;;;;;;;12.59;100.00;101031.00;5052417;28;20381;-74
2022/09/24 07:34:28;;;;;;;72.47;41.72;;;;;;;12.71;100.00;101028.78;5052694;28;20036;-74
2022/09/24 07:36:55;;;;;;;73.38;42.92;;;;;;;12.47;100.00;101032.34;5045340;28;20039;-73
2022/09/24 07:39:21;;;;;;;67.40;41.15;;;;;;;12.58;100.00;101029.28;5046393;28;20036;-73
2022/09/24 07:41:47;;;;;;;59.10;36.13;;;;;;;12.52;100.00;101035.41;5051247;28;20065;-74
2022/09/24 07:44:12;;;;;;;78.63;44.75;;;;;;;12.63;100.00;101036.94;5051732;28;20120;-73
2022/09/24 07:46:38;;;;;;;81.80;42.55;;;;;;;12.55;100.00;101040.50;5053522;28;20264;-74
2022/09/24 07:49:03;;;;;;;73.70;43.50;;;;;;;12.55;100.00;101036.94;5052651;28;20142;-74
2022/09/24 07:51:29;;;;;;;92.18;44.65;;;;;;;12.41;100.00;101033.00;5034897;28;20033;-73
2022/09/24 07:53:56;;;;;;;94.50;51.13;;;;;;;12.44;100.00;101036.22;5031173;28;20032;-73
2022/09/24 07:56:23;;;;;;;79.72;46.80;;;;;;;12.20;100.00;101031.59;5031996;28;20116;-73
2022/09/24 07:58:50;;;;;;;85.47;46.40;;;;;;;12.45;100.00;101031.63;5041300;28;20025;-75
2022/09/24 08:01:16;;;;;;;100.75;51.58;;;;;;;12.49;100.00;101030.28;5031516;28;20057;-74
2022/09/24 08:03:43;;;;;;;95.53;49.60;;;;;;;12.50;100.00;101037.41;5030863;28;20036;-74
2022/09/24 08:06:08;;;;;;;100.45;48.03;;;;;;;12.54;100.00;101044.22;5032173;28;20033;-73
2022/09/24 08:08:34;;;;;;;94.38;48.28;;;;;;;12.61;100.00;101039.81;5046582;28;20025;-74
2022/09/24 08:11:07;;;;;;;73.22;39.97;;;;;;;12.65;100.00;101035.78;5050537;28;20021;-75
2022/09/24 08:13:35;;;;;;;99.75;50.30;;;;;;;12.62;100.00;101046.97;5051046;28;20167;-74
2022/09/24 08:16:02;;;;;;;84.22;44.75;;;;;;;12.68;100.00;101046.28;5050535;28;20024;-75
2022/09/24 08:18:30;;;;;;;76.05;41.80;;;;;;;12.52;100.00;101046.28;5050409;28;20017;-74
2022/09/24 08:20:57;;;;;;;75.95;42.80;;;;;;;12.47;100.00;101043.19;5050801;28;20025;-74
2022/09/24 08:23:22;;;;;;;74.57;43.30;;;;;;;12.48;100.00;101040.31;5051595;28;20076;-74
2022/09/24 08:25:48;;;;;;;87.53;46.58;;;;;;;12.40;100.00;101044.88;5051691;28;20108;-74
2022/09/24 08:28:15;;;;;;;84.88;45.05;;;;;;;12.55;100.00;101045.94;5049477;28;20021;-73
2022/09/24 08:30:42;;;;;;;80.88;42.85;;;;;;;12.76;100.00;101043.56;5035303;28;20033;-73
2022/09/24 08:33:08;;;;;;;80.35;43.90;;;;;;;12.80;100.00;101048.69;5043452;28;20486;-73
2022/09/24 08:35:34;;;;;;;108.95;52.03;;;;;;;12.53;100.00;101047.97;5048565;28;20028;-74
2022/09/24 08:38:00;;;;;;;88.95;46.85;;;;;;;12.62;100.00;101038.81;5034244;28;20045;-74
2022/09/24 08:40:30;;;;;;;92.30;47.38;;;;;;;12.70;100.00;101046.97;5028785;28;20044;-74
2022/09/24 08:43:18;;;;;;;93.88;49.00;;;;;;;12.72;100.00;101034.09;5030281;28;20562;-74
2022/09/24 08:48:42;;;;;;;78.30;42.63;;;;;;;12.64;100.00;101036.75;5034344;28;20017;-74
2022/09/24 08:51:16;;;;;;;87.80;47.97;;;;;;;12.76;100.00;101043.56;5037261;28;20025;-73
2022/09/24 08:53:51;;;;;;;82.93;44.65;;;;;;;12.58;100.00;101040.16;5039401;28;20052;-74
2022/09/24 08:56:20;;;;;;;84.00;44.65;;;;;;;12.75;100.00;101046.47;5041399;28;20056;-74
2022/09/24 08:58:58;;;;;;;99.35;48.53;;;;;;;12.80;100.00;101043.25;5034832;28;20030;-75
2022/09/24 09:01:32;;;;;;;90.22;46.13;;;;;;;12.66;100.00;101059.19;5040202;28;20072;-75
2022/09/24 09:04:03;;;;;;;105.15;49.85;;;;;;;12.55;100.00;101048.63;5036532;28;20021;-75
2022/09/24 09:06:48;;;;;;;81.78;47.17;;;;;;;12.50;100.00;101053.72;5033982;28;20121;-75
2022/09/24 09:09:16;;;;;;;100.57;50.05;;;;;;;12.67;100.00;101060.91;5025092;28;20021;-75
2022/09/24 09:11:56;;;;;;;87.10;46.63;;;;;;;12.64;100.00;101058.50;5044154;28;20045;-76
2022/09/24 09:14:40;;;;;;;109.05;53.72;;;;;;;12.85;100.00;101057.19;5032945;28;20025;-73
2022/09/24 09:17:25;;;;;;;77.75;42.75;;;;;;;12.85;100.00;101057.19;5038955;28;20032;-74
2022/09/24 09:19:56;;;;;;;89.85;49.30;;;;;;;12.78;100.00;101062.44;5038513;28;20036;-74
2022/09/24 09:22:32;;;;;;;100.97;48.80;;;;;;;12.98;100.00;101060.25;5035471;28;20175;-73
2022/09/24 09:25:09;;;;;;;100.68;49.45;;;;;;;12.76;100.00;101059.88;5041413;28;20311;-74
2022/09/24 09:27:34;;;;;;;93.30;47.10;;;;;;;12.71;100.00;101056.84;5037969;28;20024;-74
2022/09/24 09:30:05;;;;;;;93.68;48.35;;;;;;;12.66;100.00;101064.63;5036956;28;20036;-73
2022/09/24 09:32:42;;;;;;;95.78;50.28;;;;;;;12.66;100.00;101061.06;5028378;28;20053;-73
2022/09/24 09:35:18;;;;;;;83.68;46.65;;;;;;;12.77;100.00;101066.16;5040741;28;20033;-73
2022/09/24 09:38:32;;;;;;;88.88;48.58;;;;;;;12.94;100.00;101057.00;5048528;28;20017;-73
2022/09/24 09:41:21;;;;;;;105.57;52.28;;;;;;;12.67;100.00;101060.91;5003754;28;20075;-73
2022/09/24 09:43:46;;;;;;;107.60;53.33;;;;;;;12.82;100.00;101062.94;5025188;28;20017;-73
2022/09/24 09:46:22;;;;;;;115.05;54.13;;;;;;;13.05;100.00;101053.13;5043781;28;20035;-73
2022/09/24 09:48:53;;;;;;;117.25;55.10;;;;;;;13.07;100.00;101056.50;5039261;28;20063;-71
2022/09/24 09:51:20;;;;;;;101.80;52.25;;;;;;;13.12;100.00;101065.00;5037529;28;20017;-73
2022/09/24 09:54:01;;;;;;;107.32;51.05;;;;;;;13.09;100.00;101059.03;5030994;28;20049;-75
2022/09/24 09:56:35;;;;;;;109.30;54.55;;;;;;;13.05;100.00;101053.13;5037152;28;20517;-75
2022/09/24 09:59:05;;;;;;;113.78;54.05;;;;;;;13.07;100.00;101061.09;5036005;28;20620;-75
2022/09/24 10:01:33;;;;;;;99.97;52.03;;;;;;;13.36;100.00;101055.16;5038676;28;20025;-73
2022/09/24 10:04:03;;;;;;;110.65;55.03;;;;;;;13.32;100.00;101056.53;5028631;28;20103;-72
2022/09/24 10:06:32;;;;;;;98.60;51.40;;;;;;;13.56;100.00;101051.91;5034810;28;20028;-75
2022/09/24 10:09:19;;;;;;;95.22;51.63;;;;;;;13.26;100.00;101052.63;5038590;28;20052;-71
2022/09/24 10:11:45;;;;;;;93.18;50.60;;;;;;;13.53;100.00;101051.38;5040274;28;20020;-73
2022/09/24 10:14:13;;;;;;;92.63;49.90;;;;;;;13.41;100.00;101052.78;5033257;28;20028;-75
2022/09/24 10:16:42;;;;;;;105.65;55.50;;;;;;;13.31;100.00;101058.41;5037518;28;20031;-73
2022/09/24 10:19:24;;;;;;;86.40;49.90;;;;;;;13.32;100.00;101057.38;5027925;28;20075;-73
2022/09/24 10:21:52;;;;;;;120.10;58.92;;;;;;;13.11;100.00;101057.88;5027425;28;20021;-71
2022/09/24 10:24:24;;;;;;;110.03;58.28;;;;;;;13.32;100.00;101048.38;5037072;28;20010;-73
2022/09/24 10:26:50;;;;;;;118.80;58.17;;;;;;;13.16;100.00;101052.75;5040327;28;20033;-71
2022/09/24 10:32:05;;;;;;;145.15;67.93;;;;;;;13.01;100.00;101046.31;5038701;28;20025;-73
2022/09/24 10:34:31;;;;;;;127.47;63.13;;;;;;;13.07;100.00;101055.66;5040373;28;20066;-70
2022/09/24 10:37:03;;;;;;;113.65;59.78;;;;;;;13.09;100.00;101051.75;5040279;28;20351;-73
2022/09/24 10:39:30;;;;;;;112.93;54.92;;;;;;;12.86;100.00;101058.88;5041179;28;20013;-73
2022/09/24 10:41:56;;;;;;;133.27;63.30;;;;;;;13.14;100.00;101056.66;5036613;28;20028;-70
2022/09/24 10:44:23;;;;;;;128.57;63.97;;;;;;;13.02;100.00;101056.16;5033467;28;20017;-73
2022/09/24 10:47:03;;;;;;;117.30;60.70;;;;;;;13.01;100.00;101057.19;5029802;28;20367;-71
2022/09/24 10:49:53;;;;;;;115.32;58.75;;;;;;;13.07;100.00;101056.50;5035808;28;20060;-75
2022/09/24 10:52:52;;;;;;;126.43;62.28;;;;;;;13.14;100.00;101052.09;5039678;28;20021;-72
2022/09/24 10:55:32;;;;;;;110.68;56.50;;;;;;;13.13;100.00;101055.81;5036893;28;20055;-73
2022/09/24 10:58:05;;;;;;;126.40;63.22;;;;;;;13.30;100.00;101057.56;5033902;28;20096;-74
2022/09/24 11:00:51;;;;;;;112.63;60.25;;;;;;;13.38;100.00;101047.69;5031111;28;20037;-73
2022/09/24 11:03:47;;;;;;;125.95;60.92;;;;;;;13.35;100.00;101053.47;5039552;28;20090;-72
2022/09/24 11:06:22;;;;;;;117.07;58.25;;;;;;;13.43;100.00;101056.16;5032374;28;20022;-74
2022/09/24 11:09:12;;;;;;;105.93;55.88;;;;;;;13.59;100.00;101053.41;5034281;28;20032;-73
2022/09/24 11:11:59;;;;;;;104.43;54.53;;;;;;;13.72;100.00;101050.16;5033590;28;20113;-75
2022/09/24 11:14:51;;;;;;;121.50;60.22;;;;;;;13.58;100.00;101049.84;5036647;28;20029;-73
2022/09/24 11:17:47;;;;;;;113.38;58.42;;;;;;;13.53;100.00;101054.13;5037329;28;20085;-76
2022/09/24 11:20:22;;;;;;;117.85;59.83;;;;;;;13.55;100.00;101044.75;5038184;28;20025;-72
2022/09/24 11:23:15;;;;;;;128.27;62.85;;;;;;;13.56;100.00;101045.59;5036997;28;20119;-72
2022/09/24 11:25:59;;;;;;;119.18;61.33;;;;;;;13.55;100.00;101042.03;5030079;28;20017;-74
2022/09/24 11:28:52;;;;;;;108.50;59.42;;;;;;;13.65;100.00;101050.00;5027449;28;20022;-73
2022/09/24 11:31:53;;;;;;;108.57;56.50;;;;;;;13.78;100.00;101049.47;5030711;28;20028;-72
2022/09/24 11:34:39;;;;;;;114.03;59.20;;;;;;;13.56;100.00;101040.16;5007167;28;20030;-74
2022/09/24 11:37:23;;;;;;;103.15;53.88;;;;;;;13.69;100.00;101045.03;5039701;28;20025;-73